Terminal Aerodrome Forecast
Issued by NWS

Home | Current Version | Previous Version | Text Only | Print | Product List | Glossary On
Versions: 1 2 3 4 5 6 7 8 9 10 11 12 13
000
FTUS43 KEAX 012300
TAFSTJ
TAF
KSTJ 012325Z 0200/0224 VRB03KT P6SM SKC
      TEMPO 0210/0212 4SM BR=

USA.gov is the U.S. government's official web portal to all federal, state and local government web resources and services.